Time;durP1;ratioP1;P1;durP2;ratioP2;P2;SDS_P1;SDS_P2;PMS_P1;PMS_P2;Temp;Humidity;BMP_temperature;BMP_pressure;BME280_temperature;BME280_humidity;BME280_pressure;Samples;Min_cycle;Max_cycle;Signal;HPM_P1;HPM_P2
2022/01/09 00:00:43;;;;;;;118.90;58.78;;;;;;;6.54;66.62;94154.13;4916516;29;20090;-83
2022/01/09 00:03:10;;;;;;;130.25;65.18;;;;;;;6.56;66.52;94159.84;4946843;29;20027;-84
2022/01/09 00:05:36;;;;;;;122.45;60.78;;;;;;;6.49;66.51;94153.97;4947673;29;20038;-85
2022/01/09 00:08:02;;;;;;;109.07;56.95;;;;;;;6.48;66.75;94152.41;4928351;29;20032;-84
2022/01/09 00:10:32;;;;;;;124.63;61.83;;;;;;;6.45;66.49;94158.03;4928776;29;20074;-84
2022/01/09 00:12:58;;;;;;;122.60;59.83;;;;;;;6.42;66.61;94163.63;4914368;29;20035;-84
2022/01/09 00:15:23;;;;;;;120.43;59.70;;;;;;;6.42;67.35;94168.81;4914715;29;20559;-84
2022/01/09 00:17:49;;;;;;;87.05;48.63;;;;;;;6.47;66.83;94165.53;4915220;29;20028;-83
2022/01/09 00:20:14;;;;;;;86.68;43.67;;;;;;;6.31;67.28;94151.47;4924101;29;20042;-84
2022/01/09 00:25:09;;;;;;;92.70;46.35;;;;;;;6.35;67.38;94157.78;4917507;29;20035;-83
2022/01/09 00:27:36;;;;;;;94.32;49.80;;;;;;;6.27;67.99;94165.84;4961367;29;20058;-82
2022/01/09 00:30:03;;;;;;;94.95;51.03;;;;;;;6.28;67.84;94162.25;4942667;29;20046;-83
2022/01/09 00:32:29;;;;;;;69.18;37.05;;;;;;;6.40;67.69;94159.69;4893520;29;20059;-82
2022/01/09 00:34:54;;;;;;;67.35;34.53;;;;;;;6.49;66.70;94148.81;4909175;29;20039;-82
2022/01/09 00:37:20;;;;;;;75.53;36.55;;;;;;;6.45;67.10;94152.84;4924711;29;20452;-82
2022/01/09 00:39:46;;;;;;;71.05;36.45;;;;;;;6.47;66.85;94145.66;4918023;29;20043;-82
2022/01/09 00:42:11;;;;;;;68.72;36.53;;;;;;;6.51;66.97;94144.25;4915913;29;20039;-85
2022/01/09 00:44:37;;;;;;;66.28;35.00;;;;;;;6.48;66.46;94157.56;4914665;29;20040;-83
2022/01/09 00:47:02;;;;;;;84.10;42.63;;;;;;;6.49;67.07;94140.28;4915745;29;20046;-83
2022/01/09 00:49:28;;;;;;;82.68;42.45;;;;;;;6.54;67.11;94141.22;4983685;23;20079;-83
2022/01/09 00:51:54;;;;;;;94.50;48.15;;;;;;;6.50;67.04;94140.06;4939045;29;20538;-84
2022/01/09 00:54:19;;;;;;;90.97;47.10;;;;;;;6.51;67.04;94133.91;4906160;29;20024;-83
2022/01/09 00:56:44;;;;;;;87.93;42.83;;;;;;;6.50;67.28;94144.44;4906650;29;20031;-85
2022/01/09 00:59:10;;;;;;;76.55;39.42;;;;;;;6.57;67.22;94145.91;4921621;29;20032;-85
2022/01/09 01:01:35;;;;;;;90.43;48.88;;;;;;;6.64;66.74;94140.63;4957386;23;20131;-85
2022/01/09 01:04:01;;;;;;;100.20;51.65;;;;;;;6.67;66.91;94134.22;4941589;29;20089;-84
2022/01/09 01:06:26;;;;;;;56.33;29.00;;;;;;;6.78;66.32;94138.63;4909718;23;20055;-84
2022/01/09 01:08:52;;;;;;;95.57;48.78;;;;;;;6.73;66.42;94135.94;4924234;29;20044;-84
2022/01/09 01:11:17;;;;;;;91.32;50.50;;;;;;;6.73;67.02;94138.53;4890006;29;20032;-84
2022/01/09 01:13:43;;;;;;;103.97;53.80;;;;;;;6.83;66.57;94136.97;4889835;29;20048;-84
2022/01/09 01:16:08;;;;;;;81.47;42.47;;;;;;;6.91;65.74;94135.81;4922203;29;20130;-84
2022/01/09 01:18:33;;;;;;;67.60;36.75;;;;;;;6.78;66.31;94128.28;4906339;29;20039;-83
2022/01/09 01:21:00;;;;;;;68.55;35.78;;;;;;;6.75;66.47;94118.41;4923600;29;20033;-84
2022/01/09 01:23:26;;;;;;;64.57;33.40;;;;;;;6.75;66.67;94121.00;4907352;29;20040;-85
2022/01/09 01:25:52;;;;;;;58.95;32.00;;;;;;;6.76;66.34;94123.34;4907277;29;20069;-85
2022/01/09 01:28:18;;;;;;;78.97;39.95;;;;;;;6.68;66.67;94115.16;4897528;23;20085;-85
2022/01/09 01:30:43;;;;;;;70.82;37.28;;;;;;;6.75;67.04;94119.19;4942439;29;20059;-84
2022/01/09 01:33:09;;;;;;;77.57;39.35;;;;;;;6.74;66.87;94116.84;4923558;29;20047;-84
2022/01/09 01:35:34;;;;;;;64.07;35.08;;;;;;;6.74;67.04;94109.09;4942673;29;20043;-84
2022/01/09 01:38:00;;;;;;;71.20;36.17;;;;;;;6.75;66.95;94119.19;4944066;29;20031;-85
2022/01/09 01:40:26;;;;;;;74.57;40.38;;;;;;;6.78;66.66;94115.38;4910468;29;20046;-83
2022/01/09 01:42:51;;;;;;;81.30;39.72;;;;;;;6.69;67.00;94107.19;4909899;29;20055;-83
2022/01/09 01:45:16;;;;;;;64.57;34.92;;;;;;;6.70;66.87;94103.59;4926294;29;20039;-83
2022/01/09 01:47:42;;;;;;;50.78;28.52;;;;;;;6.76;66.93;94102.69;4909873;29;20035;-83
2022/01/09 01:50:19;;;;;;;52.33;26.70;;;;;;;6.70;67.15;94097.63;4942892;29;20087;-83
2022/01/09 01:52:48;;;;;;;49.88;26.55;;;;;;;6.76;66.84;94094.16;4954382;28;20039;-82
2022/01/09 01:55:14;;;;;;;36.25;19.13;;;;;;;6.84;66.74;94084.25;4944026;29;20016;-82
2022/01/09 01:57:41;;;;;;;32.58;18.65;;;;;;;6.94;65.92;94091.44;4951279;29;20060;-83
2022/01/09 02:00:10;;;;;;;43.63;19.80;;;;;;;6.90;65.73;94085.94;4924549;29;20036;-83
2022/01/09 02:05:05;;;;;;;32.20;17.23;;;;;;;6.88;66.25;94069.88;4953984;23;20517;-83
2022/01/09 02:07:31;;;;;;;38.80;18.88;;;;;;;6.90;66.02;94067.06;4903250;29;20063;-84
2022/01/09 02:09:56;;;;;;;36.20;18.70;;;;;;;6.83;66.32;94062.03;4918284;29;20035;-83
2022/01/09 02:12:22;;;;;;;47.03;25.17;;;;;;;6.83;66.58;94061.22;4918594;29;20475;-83
2022/01/09 02:14:48;;;;;;;52.88;27.25;;;;;;;6.76;67.07;94061.34;4917568;29;20738;-83
2022/01/09 02:17:18;;;;;;;60.13;29.50;;;;;;;6.69;67.06;94052.16;4933940;29;20043;-82
2022/01/09 02:19:56;;;;;;;36.30;20.83;;;;;;;6.75;66.82;94053.81;4931790;29;20059;-84
2022/01/09 02:22:24;;;;;;;39.47;21.38;;;;;;;6.66;67.13;94047.41;4948844;29;20035;-83
2022/01/09 02:24:50;;;;;;;39.10;20.23;;;;;;;6.65;67.05;94056.16;4948860;29;20095;-83
2022/01/09 02:27:16;;;;;;;36.35;22.15;;;;;;;6.59;66.82;94034.63;4916434;29;20031;-83
2022/01/09 02:29:43;;;;;;;45.20;24.33;;;;;;;6.49;67.04;94040.34;4932818;29;20460;-83
2022/01/09 02:32:09;;;;;;;107.57;51.28;;;;;;;6.42;67.42;94029.34;5039242;23;20051;-84
2022/01/09 02:34:34;;;;;;;96.78;47.47;;;;;;;6.39;67.49;94040.13;4941724;29;20050;-85
2022/01/09 02:36:59;;;;;;;64.45;31.17;;;;;;;6.19;67.80;94034.53;4925247;29;20042;-85
2022/01/09 02:39:25;;;;;;;67.78;31.02;;;;;;;6.13;68.56;94027.66;4909869;29;20035;-84
2022/01/09 02:41:52;;;;;;;47.00;22.42;;;;;;;6.20;68.23;94025.75;4937509;29;20043;-84
2022/01/09 02:44:18;;;;;;;46.72;23.75;;;;;;;6.23;68.03;94020.16;4938363;29;20032;-84
2022/01/09 02:47:00;;;;;;;61.90;30.25;;;;;;;6.16;67.84;94025.41;4940594;29;20035;-84
2022/01/09 02:49:27;;;;;;;69.72;34.35;;;;;;;5.94;68.46;94027.75;4912563;29;20114;-84
2022/01/09 02:51:53;;;;;;;72.72;36.80;;;;;;;5.96;68.19;94030.88;4892258;29;20040;-84
2022/01/09 02:57:03;;;;;;;66.60;32.80;;;;;;;5.67;67.91;94011.81;4924434;29;20090;-84
2022/01/09 02:59:28;;;;;;;45.17;23.63;;;;;;;5.67;68.15;94005.88;4920112;29;20035;-84
2022/01/09 03:01:53;;;;;;;38.15;23.00;;;;;;;5.63;68.54;94010.69;4940063;29;20031;-84
2022/01/09 03:04:19;;;;;;;53.15;23.02;;;;;;;5.59;68.75;94013.94;4938795;29;20556;-84
2022/01/09 03:06:44;;;;;;;39.75;21.95;;;;;;;5.50;69.61;94010.88;4919661;29;20464;-84
2022/01/09 03:09:10;;;;;;;32.80;18.80;;;;;;;5.66;69.61;94004.31;4938525;29;20040;-84
2022/01/09 03:11:37;;;;;;;68.72;35.67;;;;;;;5.68;69.32;94002.28;4919259;29;20036;-84
2022/01/09 03:14:02;;;;;;;64.07;32.00;;;;;;;5.65;68.80;93988.06;4943580;23;20075;-84
2022/01/09 03:16:34;;;;;;;28.92;17.65;;;;;;;5.72;69.55;93991.34;4928375;29;20028;-84
2022/01/09 03:19:03;;;;;;;31.33;16.77;;;;;;;5.78;70.10;93989.66;4929004;29;20043;-84
2022/01/09 03:21:31;;;;;;;51.30;21.00;;;;;;;5.71;68.83;93996.72;4942102;23;20552;-84
2022/01/09 03:23:57;;;;;;;31.58;19.85;;;;;;;5.56;69.50;93991.97;4951780;23;20051;-84
2022/01/09 03:26:24;;;;;;;38.42;19.92;;;;;;;5.55;68.35;93992.97;4938273;29;20840;-84
2022/01/09 03:28:50;;;;;;;38.53;21.95;;;;;;;5.54;69.06;93995.78;4936733;29;20059;-84
2022/01/09 03:31:24;;;;;;;32.78;18.58;;;;;;;5.55;69.82;93989.63;4920189;29;20044;-84
2022/01/09 03:33:50;;;;;;;36.10;17.65;;;;;;;5.57;69.89;93993.53;4938651;29;20044;-84
2022/01/09 03:36:15;;;;;;;31.08;17.40;;;;;;;5.54;69.55;93994.00;4938924;29;20047;-83
2022/01/09 03:38:41;;;;;;;32.10;17.38;;;;;;;5.58;68.62;93984.00;4906614;29;20024;-83
2022/01/09 03:43:35;;;;;;;79.57;46.08;;;;;;;5.65;69.80;93976.94;4955829;23;20052;-84
2022/01/09 03:46:01;;;;;;;80.88;47.30;;;;;;;5.69;68.94;93976.31;4948712;29;20039;-84
2022/01/09 03:48:26;;;;;;;71.60;41.72;;;;;;;5.66;69.36;93981.09;4912030;24;20040;-84
2022/01/09 03:50:52;;;;;;;60.63;35.00;;;;;;;5.65;69.35;93985.47;4947130;29;20044;-84
2022/01/09 03:53:17;;;;;;;50.13;28.70;;;;;;;5.65;69.46;93980.31;4931366;29;20035;-84
2022/01/09 03:55:43;;;;;;;57.90;30.20;;;;;;;5.64;70.22;93980.53;4899317;29;20534;-83
2022/01/09 03:58:09;;;;;;;61.22;33.33;;;;;;;5.68;69.99;93981.66;4930409;29;20110;-84
2022/01/09 04:00:34;;;;;;;77.53;37.75;;;;;;;5.67;69.00;93965.41;4899086;29;20471;-85
2022/01/09 04:05:26;;;;;;;80.60;41.47;;;;;;;5.71;69.51;93969.13;4952870;23;20055;-84
2022/01/09 04:07:52;;;;;;;83.18;42.17;;;;;;;5.76;68.97;93965.88;4920550;29;20392;-84
2022/01/09 04:10:20;;;;;;;86.00;47.22;;;;;;;5.82;68.46;93967.56;4919595;29;20043;-84
2022/01/09 04:12:50;;;;;;;104.97;52.78;;;;;;;5.67;68.13;93964.63;4939601;29;20045;-84
2022/01/09 04:15:16;;;;;;;99.95;53.40;;;;;;;5.67;68.53;93964.63;4936563;29;20779;-83
2022/01/09 04:20:16;;;;;;;95.22;51.90;;;;;;;5.68;68.57;93961.03;4938039;29;20098;-83
2022/01/09 04:22:41;;;;;;;91.88;48.75;;;;;;;5.66;68.98;93968.19;4921616;29;20028;-83
2022/01/09 04:25:08;;;;;;;92.68;47.92;;;;;;;5.61;69.45;93957.78;4921868;29;20126;-83
2022/01/09 04:27:33;;;;;;;79.65;45.97;;;;;;;5.64;68.97;93957.31;4906697;29;20047;-83
2022/01/09 04:29:59;;;;;;;86.30;45.60;;;;;;;5.59;68.71;93959.78;4906156;29;20063;-83
2022/01/09 04:32:25;;;;;;;100.30;49.95;;;;;;;5.54;68.97;93954.53;4921950;29;20110;-83
2022/01/09 04:34:51;;;;;;;95.80;49.90;;;;;;;5.66;69.16;93957.88;4905069;29;20051;-83
2022/01/09 04:37:16;;;;;;;111.75;52.78;;;;;;;5.69;69.04;93957.44;4924186;29;20035;-83
2022/01/09 04:39:42;;;;;;;114.38;59.25;;;;;;;5.66;69.05;93963.03;4909273;29;20044;-83
2022/01/09 04:42:08;;;;;;;104.53;56.30;;;;;;;5.70;68.73;93964.19;4894415;29;20071;-83
2022/01/09 04:44:37;;;;;;;115.25;60.72;;;;;;;5.71;68.26;93965.75;4908265;29;20039;-84
2022/01/09 04:47:08;;;;;;;108.20;60.47;;;;;;;5.74;68.45;93970.47;5021695;23;20040;-84
2022/01/09 04:49:38;;;;;;;100.25;54.78;;;;;;;5.83;67.57;93969.13;4950556;29;20042;-85
2022/01/09 04:52:06;;;;;;;103.65;52.33;;;;;;;5.78;68.72;93966.44;4949873;29;20039;-86
2022/01/09 04:54:35;;;;;;;98.25;52.53;;;;;;;5.81;68.31;93976.31;5015819;23;20044;-85
2022/01/09 04:57:02;;;;;;;109.45;59.40;;;;;;;5.75;67.87;93974.63;4928911;29;20044;-83
2022/01/09 04:59:29;;;;;;;130.32;75.50;;;;;;;5.69;67.81;93966.00;4910484;29;20114;-83
2022/01/09 05:01:54;;;;;;;179.30;105.13;;;;;;;5.76;68.22;93972.81;4912178;29;20035;-84
2022/01/09 05:04:19;;;;;;;270.23;175.13;;;;;;;5.75;68.07;93969.47;4931833;29;20032;-84
2022/01/09 05:06:45;;;;;;;184.80;114.60;;;;;;;5.82;68.54;93977.09;4950067;29;20047;-84
2022/01/09 05:09:10;;;;;;;154.45;98.75;;;;;;;5.86;69.05;93984.19;4964244;23;20047;-83
2022/01/09 05:11:36;;;;;;;182.00;122.53;;;;;;;5.94;68.87;93980.50;4941574;29;20484;-83
2022/01/09 05:14:02;;;;;;;166.18;107.38;;;;;;;5.99;68.79;93972.88;4889944;29;20039;-83
2022/01/09 05:16:28;;;;;;;96.60;59.03;;;;;;;6.06;68.73;93980.53;4891035;29;20028;-83
2022/01/09 05:19:01;;;;;;;84.68;56.42;;;;;;;6.11;68.37;93970.31;4890385;29;20047;-83
2022/01/09 05:21:26;;;;;;;74.82;45.97;;;;;;;6.09;69.33;93962.00;4890960;29;20059;-84
2022/01/09 05:23:52;;;;;;;75.55;44.50;;;;;;;6.12;68.35;93961.56;4889867;29;20421;-82
2022/01/09 05:26:17;;;;;;;47.33;28.23;;;;;;;6.20;68.53;93958.66;4889524;29;20036;-84
2022/01/09 05:28:43;;;;;;;47.47;28.00;;;;;;;6.16;68.75;93952.34;4873706;29;20051;-84
2022/01/09 05:31:08;;;;;;;52.55;28.73;;;;;;;6.20;68.81;93956.84;4904757;29;20408;-84
2022/01/09 05:33:40;;;;;;;60.80;36.08;;;;;;;6.21;68.82;93957.63;4889429;29;20078;-84
2022/01/09 05:36:11;;;;;;;58.72;33.60;;;;;;;6.21;68.40;93952.47;4921755;29;20477;-84
2022/01/09 05:38:37;;;;;;;53.72;30.08;;;;;;;6.23;68.66;93948.66;4921234;29;20039;-84
2022/01/09 05:41:02;;;;;;;46.33;26.90;;;;;;;6.28;68.32;93951.31;4921245;29;20040;-83
2022/01/09 05:43:28;;;;;;;53.22;31.63;;;;;;;6.35;68.19;93940.91;4872626;29;20039;-84
2022/01/09 05:45:55;;;;;;;47.50;27.60;;;;;;;6.35;67.73;93950.44;4925323;29;20039;-83
2022/01/09 05:48:21;;;;;;;48.63;26.55;;;;;;;6.26;68.55;93945.59;4954128;23;20048;-84
2022/01/09 05:50:46;;;;;;;58.78;34.58;;;;;;;6.23;68.75;93942.69;4952954;29;20067;-83
2022/01/09 05:53:12;;;;;;;49.65;26.45;;;;;;;6.15;68.58;93940.44;4984161;23;20036;-84
2022/01/09 05:55:37;;;;;;;31.23;19.25;;;;;;;6.16;68.48;93932.47;4929412;29;20100;-85
2022/01/09 06:00:30;;;;;;;37.15;22.02;;;;;;;6.19;68.61;93944.94;4900600;29;20056;-83
2022/01/09 06:02:56;;;;;;;39.22;23.58;;;;;;;6.18;68.89;93950.31;4890311;29;20575;-85
2022/01/09 06:05:30;;;;;;;37.10;23.40;;;;;;;6.12;68.97;93944.28;4920167;29;20499;-83
2022/01/09 06:07:56;;;;;;;38.70;24.15;;;;;;;6.10;69.30;93942.94;4920165;29;20032;-85
2022/01/09 06:10:21;;;;;;;44.97;22.88;;;;;;;6.17;69.22;93944.38;4918562;29;20412;-83
2022/01/09 06:12:49;;;;;;;45.80;23.70;;;;;;;6.18;69.47;93940.00;4935180;23;20032;-84
2022/01/09 06:15:14;;;;;;;44.25;25.70;;;;;;;6.22;69.13;93947.06;4936623;29;20043;-84
2022/01/09 06:17:41;;;;;;;45.13;25.45;;;;;;;6.27;68.83;93933.50;4939675;29;20038;-84
2022/01/09 06:20:07;;;;;;;53.78;27.10;;;;;;;6.33;68.40;93927.41;4948831;29;20042;-84
2022/01/09 06:22:33;;;;;;;47.03;26.08;;;;;;;6.39;68.50;93934.25;4931132;29;20433;-85
2022/01/09 06:25:01;;;;;;;42.45;24.92;;;;;;;6.44;68.62;93929.19;4931978;29;20039;-84
2022/01/09 06:27:26;;;;;;;50.35;26.67;;;;;;;6.54;67.97;93926.81;4947173;29;20039;-84
2022/01/09 06:29:52;;;;;;;45.88;26.42;;;;;;;6.66;67.68;93929.38;4948191;29;20054;-84
2022/01/09 06:32:17;;;;;;;48.03;25.05;;;;;;;6.72;67.19;93925.09;4945698;29;20492;-84
2022/01/09 06:34:43;;;;;;;43.50;25.58;;;;;;;6.77;67.45;93932.94;4954100;29;20427;-84
2022/01/09 06:37:10;;;;;;;38.58;23.92;;;;;;;7.05;66.45;93929.59;4918122;29;20538;-85
2022/01/09 06:39:36;;;;;;;40.50;24.10;;;;;;;7.29;65.37;93932.84;4948537;29;20035;-83
2022/01/09 06:42:13;;;;;;;44.95;25.52;;;;;;;7.41;65.45;93921.44;4949014;29;20038;-84
2022/01/09 06:44:39;;;;;;;48.22;25.75;;;;;;;7.75;63.93;93929.22;4949322;29;20035;-84
2022/01/09 06:47:04;;;;;;;40.22;23.77;;;;;;;7.98;63.27;93925.69;4946044;29;20040;-84
2022/01/09 06:49:30;;;;;;;41.85;23.90;;;;;;;8.25;62.68;93929.16;4951476;29;20036;-84
2022/01/09 06:51:57;;;;;;;40.70;23.17;;;;;;;8.38;62.44;93925.47;4950181;29;20035;-84
2022/01/09 06:54:23;;;;;;;42.13;23.90;;;;;;;8.39;61.75;93927.03;4899315;29;20050;-84
2022/01/09 06:59:18;;;;;;;29.38;17.05;;;;;;;8.54;60.36;93914.28;4945844;23;20060;-82
2022/01/09 07:01:45;;;;;;;33.13;17.73;;;;;;;8.48;59.95;93927.44;4937817;29;20047;-85
2022/01/09 07:04:11;;;;;;;29.35;18.23;;;;;;;8.49;60.25;93924.59;4923322;29;20031;-85
2022/01/09 07:06:36;;;;;;;29.45;17.00;;;;;;;8.57;59.88;93936.34;4890169;29;20485;-84
2022/01/09 07:09:03;;;;;;;29.90;16.60;;;;;;;8.56;59.48;93932.97;4966218;23;20043;-84
2022/01/09 07:11:31;;;;;;;28.23;15.57;;;;;;;8.59;58.74;93929.09;4937373;29;20120;-84
2022/01/09 07:13:57;;;;;;;27.98;16.30;;;;;;;8.76;59.42;93929.81;4942316;29;20053;-83
2022/01/09 07:16:22;;;;;;;36.63;14.93;;;;;;;9.05;58.41;93938.19;4942765;29;20031;-83
2022/01/09 07:18:48;;;;;;;27.38;15.30;;;;;;;9.23;57.86;93939.66;4946590;29;20587;-84
2022/01/09 07:21:13;;;;;;;24.50;14.95;;;;;;;9.44;57.45;93940.66;4946691;29;20034;-84
2022/01/09 07:23:39;;;;;;;31.90;15.45;;;;;;;9.56;57.58;93939.47;4917272;24;20052;-83
2022/01/09 07:26:04;;;;;;;19.33;13.38;;;;;;;9.70;56.71;93945.03;4911214;29;20493;-84
2022/01/09 07:28:29;;;;;;;23.55;14.35;;;;;;;9.80;56.95;93949.53;4940551;23;20039;-84
2022/01/09 07:30:55;;;;;;;24.23;15.13;;;;;;;9.93;56.41;93939.53;4940675;29;20408;-84
2022/01/09 07:33:20;;;;;;;23.92;13.50;;;;;;;9.99;55.08;93942.94;4942527;29;20055;-84
2022/01/09 07:35:46;;;;;;;20.67;13.05;;;;;;;9.97;55.39;93939.81;4923621;29;20199;-84
2022/01/09 07:38:14;;;;;;;25.75;15.35;;;;;;;10.05;54.93;93943.75;4941221;29;20060;-83
2022/01/09 07:43:20;;;;;;;24.70;14.93;;;;;;;10.18;53.61;93938.91;4937085;29;20515;-83
2022/01/09 07:45:46;;;;;;;16.10;11.93;;;;;;;9.97;54.12;93934.63;4950971;29;20039;-83
2022/01/09 07:48:11;;;;;;;22.45;13.00;;;;;;;10.09;53.95;93932.63;4932306;29;20055;-83
2022/01/09 07:50:37;;;;;;;17.85;12.23;;;;;;;10.14;54.28;93924.09;4951825;29;20032;-83
2022/01/09 07:53:04;;;;;;;28.23;14.90;;;;;;;10.17;54.40;93921.75;4949977;29;20032;-83
2022/01/09 07:55:32;;;;;;;30.77;17.20;;;;;;;9.99;54.58;93929.16;4950960;29;20396;-83
2022/01/09 07:58:02;;;;;;;32.00;16.85;;;;;;;10.10;54.71;93918.59;4950548;29;20055;-82
2022/01/09 08:00:27;;;;;;;33.55;18.65;;;;;;;10.10;55.09;93910.81;4917810;29;20118;-82
2022/01/09 08:02:53;;;;;;;21.58;13.98;;;;;;;10.07;54.98;93919.09;4901887;29;20035;-82
2022/01/09 08:05:18;;;;;;;22.23;13.38;;;;;;;10.06;54.82;93917.53;4948777;29;20028;-84
2022/01/09 08:07:44;;;;;;;14.93;10.90;;;;;;;9.98;54.47;93915.41;4932771;29;20029;-84
2022/01/09 08:10:09;;;;;;;12.82;9.63;;;;;;;9.92;54.52;93903.41;4916176;29;20552;-84
2022/01/09 08:12:35;;;;;;;12.13;8.23;;;;;;;10.00;53.23;93915.94;4932597;29;20046;-84
2022/01/09 08:15:02;;;;;;;20.60;10.15;;;;;;;10.13;54.05;93912.91;4932082;29;20032;-85
2022/01/09 08:17:28;;;;;;;13.43;8.77;;;;;;;10.05;53.54;93889.19;4900260;29;20118;-84
2022/01/09 08:19:53;;;;;;;15.52;8.90;;;;;;;9.95;53.00;93892.53;4917582;29;20046;-84
2022/01/09 08:22:27;;;;;;;10.27;7.97;;;;;;;10.02;53.90;93893.09;4914881;29;20032;-84
2022/01/09 08:24:53;;;;;;;16.00;8.38;;;;;;;10.14;53.89;93887.72;4918261;29;20050;-84
2022/01/09 08:27:21;;;;;;;12.13;7.65;;;;;;;10.15;52.74;93876.28;4913132;29;20036;-82
2022/01/09 08:29:46;;;;;;;12.40;8.23;;;;;;;10.20;52.89;93882.28;5697676;23;20107;-83
2022/01/09 08:32:15;;;;;;;9.80;7.65;;;;;;;10.06;53.13;93875.97;4926855;29;20039;-83
2022/01/09 08:34:41;;;;;;;8.43;6.38;;;;;;;10.15;53.31;93879.66;4915117;29;20088;-84
2022/01/09 08:37:11;;;;;;;7.03;5.63;;;;;;;10.31;51.21;93872.75;4920980;23;20461;-83
2022/01/09 08:39:46;;;;;;;7.03;5.50;;;;;;;10.14;52.15;93861.72;4918626;29;20130;-84
2022/01/09 08:42:12;;;;;;;6.65;5.80;;;;;;;10.21;52.75;93878.69;4924348;29;20035;-86
2022/01/09 08:44:38;;;;;;;9.35;6.57;;;;;;;10.45;51.69;93873.09;4901962;29;20036;-86
2022/01/09 08:47:03;;;;;;;10.38;6.30;;;;;;;10.36;51.58;93879.78;4900235;29;20043;-82
2022/01/09 08:49:29;;;;;;;8.30;6.80;;;;;;;10.45;51.46;93863.47;4916224;29;20044;-81
2022/01/09 08:51:55;;;;;;;10.90;6.63;;;;;;;10.44;51.46;93861.13;4917048;29;20028;-82
2022/01/09 08:54:21;;;;;;;7.82;6.60;;;;;;;10.39;51.34;93861.09;4918627;29;20103;-85
2022/01/09 08:59:21;;;;;;;14.02;7.40;;;;;;;10.17;52.37;93867.19;4961807;23;20059;-84
2022/01/09 09:01:47;;;;;;;12.50;7.60;;;;;;;10.06;52.71;93864.78;4943058;29;20631;-82
2022/01/09 09:04:13;;;;;;;10.68;7.95;;;;;;;10.13;53.05;93850.56;4926079;29;20377;-83
2022/01/09 09:06:38;;;;;;;14.65;7.70;;;;;;;10.13;52.82;93853.16;4965108;23;20036;-83
2022/01/09 09:09:06;;;;;;;7.60;6.40;;;;;;;10.25;52.90;93847.00;4958398;23;20460;-82
2022/01/09 09:11:32;;;;;;;9.25;7.05;;;;;;;10.60;51.63;93841.97;4955334;23;20099;-83
2022/01/09 09:16:26;;;;;;;11.32;7.25;;;;;;;10.88;51.47;93824.34;4948481;23;20079;-82
2022/01/09 09:18:52;;;;;;;9.20;7.28;;;;;;;11.07;51.05;93828.03;4909340;29;20047;-82
2022/01/09 09:21:17;;;;;;;11.15;8.60;;;;;;;11.16;50.09;93820.47;4924601;29;20035;-82
2022/01/09 09:26:18;;;;;;;7.38;6.55;;;;;;;11.01;50.50;93813.44;4967280;23;20044;-82
2022/01/09 09:28:44;;;;;;;10.13;7.22;;;;;;;10.85;51.24;93801.44;4943166;29;20034;-83
2022/01/09 09:31:13;;;;;;;8.25;6.50;;;;;;;10.93;50.68;93793.16;4948362;29;20927;-82
2022/01/09 09:33:38;;;;;;;10.88;6.72;;;;;;;10.96;51.13;93793.41;4948754;29;20043;-82
2022/01/09 09:36:04;;;;;;;11.90;7.72;;;;;;;11.05;50.69;93791.84;4946767;29;20094;-83
2022/01/09 09:41:05;;;;;;;9.70;7.20;;;;;;;11.03;50.90;93787.94;4927734;23;20059;-81
2022/01/09 09:43:34;;;;;;;10.50;8.10;;;;;;;10.76;51.54;93795.97;4921518;29;20060;-82
2022/01/09 09:46:00;;;;;;;11.98;9.32;;;;;;;10.59;51.91;93783.22;4916181;29;20039;-82
2022/01/09 09:48:26;;;;;;;16.45;10.13;;;;;;;10.31;52.22;93773.25;4933514;29;20055;-80
2022/01/09 09:50:52;;;;;;;12.82;8.65;;;;;;;10.34;53.01;93767.53;4946594;29;20035;-84
2022/01/09 09:53:18;;;;;;;13.00;9.18;;;;;;;10.16;53.49;93761.72;4911211;29;20564;-82
2022/01/09 09:55:51;;;;;;;16.30;8.93;;;;;;;10.10;53.18;93747.16;4915235;29;20056;-82
2022/01/09 09:58:17;;;;;;;10.32;7.38;;;;;;;10.22;52.85;93760.72;4929701;29;20119;-82
2022/01/09 10:00:43;;;;;;;7.43;6.55;;;;;;;9.80;53.16;93758.19;4897956;29;20415;-82
2022/01/09 10:03:11;;;;;;;13.32;5.75;;;;;;;9.53;54.06;93752.34;4913510;29;20071;-82
2022/01/09 10:05:38;;;;;;;11.35;6.32;;;;;;;9.48;54.97;93755.69;4929171;29;20069;-82
2022/01/09 10:08:05;;;;;;;8.95;6.50;;;;;;;9.65;54.94;93752.94;4914082;29;20036;-82
2022/01/09 10:10:32;;;;;;;13.23;6.45;;;;;;;9.76;54.07;93753.75;4894243;29;20028;-84
2022/01/09 10:13:08;;;;;;;8.43;6.97;;;;;;;9.74;54.55;93761.00;4930007;29;20043;-83
2022/01/09 10:15:50;;;;;;;9.80;7.30;;;;;;;9.55;54.88;93761.44;4897208;29;20111;-83
2022/01/09 10:18:38;;;;;;;13.65;7.90;;;;;;;9.60;54.96;93766.66;4911447;29;20035;-83
2022/01/09 10:21:17;;;;;;;9.77;7.68;;;;;;;9.69;55.66;93759.16;4928464;29;20488;-82
2022/01/09 10:24:06;;;;;;;7.82;6.72;;;;;;;9.79;54.79;93758.47;4918302;29;20522;-83
2022/01/09 10:26:36;;;;;;;9.95;6.05;;;;;;;9.58;54.69;93760.91;4925439;29;20027;-82
2022/01/09 10:29:03;;;;;;;7.43;5.85;;;;;;;9.58;55.00;93745.34;4929431;29;20043;-82
2022/01/09 10:31:28;;;;;;;10.30;6.50;;;;;;;9.62;55.28;93745.66;4927627;29;20044;-83
2022/01/09 10:33:58;;;;;;;12.68;7.38;;;;;;;9.86;54.84;93738.22;4912017;29;20044;-86
2022/01/09 10:36:42;;;;;;;13.82;7.90;;;;;;;9.70;55.31;93734.00;4913596;29;20079;-83
2022/01/09 10:39:28;;;;;;;12.65;7.60;;;;;;;9.57;55.75;93728.22;4897650;29;20503;-83
2022/01/09 10:42:03;;;;;;;10.25;7.90;;;;;;;9.40;56.93;93727.59;4903824;29;20444;-86
2022/01/09 10:44:34;;;;;;;20.08;9.07;;;;;;;9.21;57.57;93723.84;4897514;29;20069;-84
2022/01/09 10:47:04;;;;;;;11.65;8.43;;;;;;;9.07;57.72;93738.28;4910899;29;20048;-84
2022/01/09 10:49:36;;;;;;;14.70;9.15;;;;;;;8.70;58.30;93734.63;4896551;29;20071;-77
2022/01/09 10:52:21;;;;;;;15.00;9.80;;;;;;;8.94;58.59;93713.53;4927234;29;20043;-84
2022/01/09 10:54:52;;;;;;;14.85;9.20;;;;;;;9.19;58.08;93720.72;4907488;29;20080;-84
2022/01/09 10:57:22;;;;;;;13.10;8.98;;;;;;;9.41;57.29;93715.41;4896723;29;20036;-82
2022/01/09 10:59:48;;;;;;;12.23;9.27;;;;;;;9.46;57.03;93721.44;4897116;29;20047;-84
2022/01/09 11:02:14;;;;;;;14.55;8.43;;;;;;;9.48;55.70;93729.75;4929768;29;20781;-85
2022/01/09 11:04:41;;;;;;;9.00;7.68;;;;;;;9.08;57.17;93729.47;4915510;29;20067;-87
2022/01/09 11:07:07;;;;;;;29.75;8.10;;;;;;;9.01;57.79;93709.72;4901185;29;20048;-86
2022/01/09 11:09:33;;;;;;;13.30;9.27;;;;;;;9.15;57.51;93709.28;4917113;29;20032;-86
2022/01/09 11:11:59;;;;;;;14.85;9.25;;;;;;;9.36;57.55;93721.34;4916524;29;20061;-85
2022/01/09 11:14:26;;;;;;;11.88;8.90;;;;;;;9.50;56.73;93701.72;4915856;29;20036;-86
2022/01/09 11:16:55;;;;;;;12.50;8.57;;;;;;;9.72;56.12;93708.56;4900766;29;20040;-85
2022/01/09 11:19:24;;;;;;;8.90;7.70;;;;;;;9.93;55.04;93710.22;4918249;29;20126;-84
2022/01/09 11:21:59;;;;;;;11.95;7.50;;;;;;;9.83;55.78;93710.19;4900833;29;20044;-85
2022/01/09 11:24:31;;;;;;;14.73;8.43;;;;;;;9.55;56.51;93706.94;4944282;23;20087;-87
2022/01/09 11:27:27;;;;;;;11.37;8.03;;;;;;;9.79;55.86;93694.34;4938105;29;20045;-86
2022/01/09 11:30:05;;;;;;;11.30;8.10;;;;;;;9.61;55.92;93698.16;4920416;29;20032;-85
2022/01/09 11:32:55;;;;;;;11.18;8.07;;;;;;;9.38;56.11;93693.34;4880720;29;20048;-86
2022/01/09 11:35:50;;;;;;;11.93;6.97;;;;;;;9.21;57.34;93687.53;4897901;29;20522;-86
2022/01/09 11:38:22;;;;;;;15.85;8.02;;;;;;;9.18;57.51;93682.84;4888197;29;20036;-85
2022/01/09 11:40:48;;;;;;;12.32;7.85;;;;;;;9.40;57.47;93688.69;4919203;29;20107;-85
2022/01/09 11:43:17;;;;;;;10.52;7.28;;;;;;;9.35;57.14;93688.66;4873431;29;20089;-85
2022/01/09 11:45:48;;;;;;;7.53;6.45;;;;;;;9.25;56.97;93683.41;4874403;29;20028;-86
2022/01/09 11:48:20;;;;;;;12.93;8.15;;;;;;;9.25;56.93;93683.41;4891012;29;20028;-88
2022/01/09 11:51:04;;;;;;;13.75;7.97;;;;;;;9.11;57.43;93696.06;4875424;29;20044;-86
2022/01/09 11:54:05;;;;;;;8.80;6.65;;;;;;;8.94;57.72;93688.38;4921144;29;20507;-86
2022/01/09 11:56:46;;;;;;;9.30;7.63;;;;;;;9.26;56.96;93684.97;4924092;29;20032;-87
2022/01/09 11:59:28;;;;;;;8.60;7.35;;;;;;;9.44;56.53;93681.97;4899107;29;20413;-87
2022/01/09 12:01:59;;;;;;;12.70;8.00;;;;;;;9.76;55.08;93678.47;4890800;29;20039;-88